createdAt,value
2019-04-21T00:01:56.369Z,8.57
2019-04-21T00:04:40.543Z,7.77
2019-04-21T00:07:13.418Z,8.23
2019-04-21T00:09:50.235Z,7.50
2019-04-21T00:12:15.325Z,7.57
2019-04-21T00:14:35.009Z,8.80
2019-04-21T00:17:02.769Z,8.33
2019-04-21T00:19:39.531Z,8.17
2019-04-21T00:22:19.286Z,7.93
2019-04-21T00:24:51.896Z,9.87
2019-04-21T00:27:24.573Z,8.20
2019-04-21T00:30:00.504Z,8.27
2019-04-21T00:32:24.553Z,8.27
2019-04-21T00:34:36.429Z,9.00
2019-04-21T00:37:17.059Z,11.30
2019-04-21T00:40:01.528Z,8.43
2019-04-21T00:42:22.869Z,7.90
2019-04-21T00:44:44.194Z,9.97
2019-04-21T00:47:27.911Z,7.90
2019-04-21T00:49:56.485Z,8.40
2019-04-21T00:55:34.029Z,9.40
2019-04-21T00:58:03.499Z,7.47
2019-04-21T01:00:29.029Z,7.47
2019-04-21T01:03:14.771Z,7.70
2019-04-21T01:05:33.592Z,7.70
2019-04-21T01:07:58.230Z,7.53
2019-04-21T01:10:21.017Z,7.33
2019-04-21T01:12:54.902Z,7.53
2019-04-21T01:15:30.639Z,7.43
2019-04-21T01:17:59.357Z,7.63
2019-04-21T01:20:16.137Z,11.27
2019-04-21T01:22:34.906Z,7.60
2019-04-21T01:25:11.894Z,7.03
2019-04-21T01:27:54.171Z,6.97
2019-04-21T01:30:26.515Z,7.20
2019-04-21T01:32:55.763Z,8.10
2019-04-21T01:35:24.057Z,8.20
2019-04-21T01:38:06.840Z,8.30
2019-04-21T01:42:50.998Z,7.67
2019-04-21T01:45:18.901Z,8.60
2019-04-21T01:47:47.422Z,7.33
2019-04-21T01:50:07.076Z,8.20
2019-04-21T01:52:56.022Z,8.33
2019-04-21T01:55:55.000Z,9.10
2019-04-21T01:58:19.755Z,9.50
2019-04-21T02:00:59.475Z,7.90
2019-04-21T02:03:47.002Z,8.20
2019-04-21T02:06:07.680Z,10.53
2019-04-21T02:08:27.200Z,8.03
2019-04-21T02:11:05.161Z,8.80
2019-04-21T02:13:27.949Z,7.23
2019-04-21T02:16:05.490Z,7.40
2019-04-21T02:18:29.173Z,8.03
2019-04-21T02:20:48.132Z,7.17
2019-04-21T02:23:36.455Z,8.27
2019-04-21T02:25:58.391Z,8.40
2019-04-21T02:28:38.407Z,10.50
2019-04-21T02:31:18.615Z,7.53
2019-04-21T02:38:48.231Z,7.27
2019-04-21T02:41:09.516Z,7.70
2019-04-21T02:43:34.302Z,8.53
2019-04-21T02:46:12.856Z,8.37
2019-04-21T02:48:39.339Z,7.60
2019-04-21T02:50:58.047Z,11.00
2019-04-21T02:53:48.240Z,7.93
2019-04-21T02:58:48.017Z,8.27
2019-04-21T03:01:29.157Z,7.73
2019-04-21T03:06:56.360Z,8.47
2019-04-21T03:09:24.424Z,8.57
2019-04-21T03:11:56.422Z,8.13
2019-04-21T03:14:30.730Z,8.40
2019-04-21T03:16:40.589Z,11.77
2019-04-21T03:19:33.068Z,10.90
2019-04-21T03:21:48.893Z,9.60
2019-04-21T03:24:24.994Z,12.80
2019-04-21T03:29:19.732Z,7.63
2019-04-21T03:36:57.079Z,8.47
2019-04-21T03:39:11.403Z,8.80
2019-04-21T03:41:48.030Z,8.70
2019-04-21T03:44:14.494Z,8.67
2019-04-21T03:49:19.317Z,8.60
2019-04-21T03:51:45.914Z,9.00
2019-04-21T03:54:09.193Z,9.87
2019-04-21T03:59:03.925Z,10.90
2019-04-21T04:01:57.761Z,8.40
2019-04-21T04:04:45.730Z,11.03
2019-04-21T04:07:44.226Z,9.80
2019-04-21T04:12:34.519Z,10.03
2019-04-21T04:15:02.394Z,9.30
2019-04-21T04:20:24.255Z,10.27
2019-04-21T04:22:48.109Z,10.17
2019-04-21T04:30:08.076Z,10.57
2019-04-21T04:32:28.497Z,10.13
2019-04-21T04:35:03.885Z,10.13
2019-04-21T04:37:32.618Z,9.50
2019-04-21T04:43:07.493Z,12.30
2019-04-21T04:45:38.471Z,9.93
2019-04-21T04:50:49.412Z,11.60
2019-04-21T04:53:03.585Z,10.13
2019-04-21T04:55:33.745Z,12.23
2019-04-21T05:00:34.540Z,11.30
2019-04-21T05:02:56.413Z,10.97
2019-04-21T05:05:28.357Z,10.67
2019-04-21T05:08:08.354Z,11.10
2019-04-21T05:10:38.422Z,13.17
2019-04-21T05:12:51.201Z,10.70
2019-04-21T05:15:16.487Z,10.23
2019-04-21T05:17:50.842Z,10.27
2019-04-21T05:20:29.708Z,10.60
2019-04-21T05:22:48.920Z,12.13
2019-04-21T05:25:13.504Z,10.73
2019-04-21T05:27:42.954Z,12.97
2019-04-21T05:30:30.696Z,11.70
2019-04-21T05:33:11.708Z,11.47
2019-04-21T05:35:52.033Z,9.63
2019-04-21T05:38:22.314Z,11.17
2019-04-21T05:40:43.728Z,11.07
2019-04-21T05:43:28.336Z,9.63
2019-04-21T05:46:01.237Z,10.80
2019-04-21T05:50:58.925Z,11.50
2019-04-21T05:53:41.067Z,10.33
2019-04-21T05:56:16.235Z,9.73
2019-04-21T05:58:32.893Z,10.03
2019-04-21T06:01:28.542Z,9.77
2019-04-21T06:03:44.708Z,9.90
2019-04-21T06:06:14.145Z,10.17
2019-04-21T06:08:37.219Z,13.40
2019-04-21T06:11:07.267Z,9.03
2019-04-21T06:13:45.238Z,9.97
2019-04-21T06:16:12.036Z,10.27
2019-04-21T06:18:42.096Z,10.10
2019-04-21T06:23:36.559Z,9.03
2019-04-21T06:26:27.023Z,9.73
2019-04-21T06:28:40.202Z,9.30
2019-04-21T06:31:14.581Z,8.43
2019-04-21T06:33:43.224Z,9.93
2019-04-21T06:39:18.261Z,9.40
2019-04-21T06:44:07.565Z,10.10
2019-04-21T06:46:35.193Z,9.17
2019-04-21T06:51:30.692Z,9.57
2019-04-21T06:56:36.557Z,10.03
2019-04-21T06:59:01.398Z,9.43
2019-04-21T07:01:33.044Z,8.97
2019-04-21T07:04:06.939Z,10.03
2019-04-21T07:06:32.475Z,8.87
2019-04-21T07:09:12.640Z,8.60
2019-04-21T07:11:27.027Z,8.67
2019-04-21T07:14:13.458Z,9.50
2019-04-21T07:16:31.989Z,10.17
2019-04-21T07:19:10.053Z,8.87
2019-04-21T07:21:29.372Z,8.90
2019-04-21T07:24:00.512Z,8.50
2019-04-21T07:26:25.302Z,9.13
2019-04-21T07:29:02.896Z,8.93
2019-04-21T07:31:25.192Z,10.37
2019-04-21T07:34:00.164Z,8.73
2019-04-21T07:36:36.432Z,9.47
2019-04-21T07:38:51.363Z,8.13
2019-04-21T07:41:16.002Z,8.73
2019-04-21T07:43:53.383Z,8.93
2019-04-21T07:46:23.704Z,8.77
2019-04-21T07:49:01.812Z,8.30
2019-04-21T07:51:56.827Z,9.00
2019-04-21T07:54:33.575Z,9.37
2019-04-21T07:56:39.877Z,8.47
2019-04-21T07:59:31.528Z,8.50
2019-04-21T08:01:55.062Z,8.80
2019-04-21T08:06:52.016Z,8.90
2019-04-21T08:09:18.312Z,8.50
2019-04-21T08:11:48.701Z,8.27
2019-04-21T08:14:24.209Z,7.97
2019-04-21T08:16:51.053Z,8.23
2019-04-21T08:19:21.882Z,8.40
2019-04-21T08:21:55.856Z,8.60
2019-04-21T08:24:19.844Z,7.87
2019-04-21T08:26:51.258Z,7.90
2019-04-21T08:29:25.820Z,6.90
2019-04-21T08:34:22.658Z,8.73
2019-04-21T08:36:46.264Z,7.77
2019-04-21T08:39:24.045Z,7.63
2019-04-21T08:41:46.541Z,8.40
2019-04-21T08:44:20.566Z,8.10
2019-04-21T08:46:49.144Z,8.33
2019-04-21T08:49:15.249Z,7.83
2019-04-21T08:51:50.482Z,7.50
2019-04-21T08:54:15.140Z,7.77
2019-04-21T08:57:01.259Z,7.17
2019-04-21T08:59:50.701Z,6.47
2019-04-21T09:02:47.537Z,7.03
2019-04-21T09:05:20.644Z,6.77
2019-04-21T09:07:47.594Z,7.40
2019-04-21T09:10:20.518Z,8.37
2019-04-21T09:12:46.692Z,6.73
2019-04-21T09:15:13.915Z,7.73
2019-04-21T09:17:37.727Z,7.90
2019-04-21T09:20:17.045Z,7.23
2019-04-21T09:22:41.564Z,6.83
2019-04-21T09:25:21.196Z,6.13
2019-04-21T09:27:42.150Z,7.87
2019-04-21T09:29:59.367Z,6.03
2019-04-21T09:32:26.913Z,6.50
2019-04-21T09:34:53.316Z,7.00
2019-04-21T09:37:33.020Z,5.80
2019-04-21T09:39:55.146Z,6.60
2019-04-21T09:42:21.895Z,6.00
2019-04-21T09:44:53.844Z,5.60
2019-04-21T09:47:23.472Z,6.20
2019-04-21T09:49:49.569Z,5.40
2019-04-21T09:52:23.406Z,5.70
2019-04-21T09:54:56.431Z,5.57
2019-04-21T09:57:29.964Z,5.00
2019-04-21T09:59:53.763Z,6.63
2019-04-21T10:02:25.674Z,5.60
2019-04-21T10:04:46.208Z,5.67
2019-04-21T10:07:24.510Z,5.10
2019-04-21T10:09:43.936Z,5.30
2019-04-21T10:12:11.919Z,6.00
2019-04-21T10:14:43.062Z,5.80
2019-04-21T10:17:23.826Z,4.97
2019-04-21T10:19:52.861Z,5.50
2019-04-21T10:22:21.125Z,5.37
2019-04-21T10:24:49.306Z,5.30
2019-04-21T10:27:17.326Z,5.90
2019-04-21T10:29:46.758Z,5.03
2019-04-21T10:32:15.412Z,5.40
2019-04-21T10:34:45.745Z,5.03
2019-04-21T10:37:13.635Z,4.83
2019-04-21T10:39:41.916Z,5.10
2019-04-21T10:42:11.280Z,6.50
2019-04-21T10:44:39.357Z,5.83
2019-04-21T10:47:07.314Z,4.80
2019-04-21T10:49:35.226Z,6.77
2019-04-21T10:52:06.758Z,6.10
2019-04-21T10:54:49.148Z,5.90
2019-04-21T10:57:08.397Z,4.97
2019-04-21T10:59:37.205Z,5.10
2019-04-21T11:02:07.302Z,5.10
2019-04-21T11:04:38.295Z,6.00
2019-04-21T11:07:26.113Z,5.40
2019-04-21T11:09:51.878Z,4.40
2019-04-21T11:12:19.873Z,4.30
2019-04-21T11:14:47.836Z,4.43
2019-04-21T11:17:16.454Z,5.00
2019-04-21T11:19:44.371Z,5.00
2019-04-21T11:22:12.695Z,4.20
2019-04-21T11:24:40.904Z,3.53
2019-04-21T11:27:08.883Z,4.27
2019-04-21T11:29:37.165Z,4.53
2019-04-21T11:32:05.254Z,3.70
2019-04-21T11:34:33.498Z,6.13
2019-04-21T11:37:02.059Z,4.30
2019-04-21T11:39:39.196Z,4.20
2019-04-21T11:42:01.723Z,4.83
2019-04-21T11:44:31.056Z,4.10
2019-04-21T11:47:00.446Z,4.43
2019-04-21T11:49:31.107Z,5.67
2019-04-21T11:51:58.714Z,3.93
2019-04-21T11:54:26.962Z,3.33
2019-04-21T11:56:54.940Z,4.33
2019-04-21T12:02:09.743Z,6.40
2019-04-21T12:04:39.172Z,3.30
2019-04-21T12:07:07.528Z,5.10
2019-04-21T12:09:35.518Z,3.60
2019-04-21T12:12:03.537Z,3.27
2019-04-21T12:14:32.104Z,3.37
2019-04-21T12:17:01.113Z,5.53
2019-04-21T12:19:30.563Z,5.63
2019-04-21T12:22:08.815Z,3.93
2019-04-21T12:24:32.763Z,3.40
2019-04-21T12:27:00.242Z,4.10
2019-04-21T12:29:29.070Z,4.57
2019-04-21T12:32:18.225Z,3.93
2019-04-21T12:34:48.893Z,3.50
2019-04-21T12:37:16.979Z,4.17
2019-04-21T12:39:45.181Z,5.90
2019-04-21T12:42:14.448Z,6.33
2019-04-21T12:44:43.405Z,4.87
2019-04-21T12:47:12.029Z,3.87
2019-04-21T12:49:41.345Z,4.27
2019-04-21T12:52:09.516Z,4.57
2019-04-21T12:54:37.724Z,4.63
2019-04-21T12:57:07.652Z,4.13
2019-04-21T12:59:37.357Z,5.50
2019-04-21T13:02:05.605Z,3.70
2019-04-21T13:04:35.777Z,3.87
2019-04-21T13:07:03.936Z,4.17
2019-04-21T13:09:32.514Z,6.03
2019-04-21T13:12:01.517Z,5.73
2019-04-21T13:14:29.638Z,3.60
2019-04-21T13:16:57.600Z,4.83
2019-04-21T13:19:25.539Z,4.07
2019-04-21T13:21:54.022Z,4.33
2019-04-21T13:24:22.088Z,7.43
2019-04-21T13:26:56.127Z,4.20
2019-04-21T13:29:20.506Z,5.30
2019-04-21T13:31:49.942Z,4.07
2019-04-21T13:34:18.156Z,4.33
2019-04-21T13:36:47.592Z,4.53
2019-04-21T13:40:14.395Z,4.50
2019-04-21T13:42:34.299Z,3.87
2019-04-21T13:44:57.817Z,4.23
2019-04-21T13:47:25.648Z,4.67
2019-04-21T13:49:56.412Z,4.43
2019-04-21T13:52:24.640Z,3.70
2019-04-21T13:54:53.774Z,4.10
2019-04-21T13:57:22.700Z,3.77
2019-04-21T13:59:51.363Z,4.27
2019-04-21T14:02:20.723Z,4.00
2019-04-21T14:04:49.672Z,4.03
2019-04-21T14:07:18.434Z,3.60
2019-04-21T14:09:55.229Z,3.80
2019-04-21T14:12:17.229Z,10.23
2019-04-21T14:14:46.340Z,3.30
2019-04-21T14:17:15.080Z,3.53
2019-04-21T14:19:43.546Z,4.03
2019-04-21T14:22:13.961Z,3.40
2019-04-21T14:24:43.659Z,3.93
2019-04-21T14:27:12.194Z,3.70
2019-04-21T14:29:41.634Z,3.10
2019-04-21T14:32:10.592Z,3.17
2019-04-21T14:34:39.818Z,3.43
2019-04-21T14:37:08.776Z,3.57
2019-04-21T14:39:48.503Z,4.43
2019-04-21T14:42:06.506Z,4.40
2019-04-21T14:44:34.361Z,4.40
2019-04-21T14:47:21.276Z,4.90
2019-04-21T14:50:24.451Z,3.63
2019-04-21T14:53:11.899Z,2.90
2019-04-21T14:55:41.886Z,3.50
2019-04-21T14:58:09.730Z,5.13
2019-04-21T15:00:55.593Z,4.00
2019-04-21T15:03:23.708Z,3.53
2019-04-21T15:05:51.690Z,2.90
2019-04-21T15:08:19.631Z,3.90
2019-04-21T15:10:47.574Z,2.97
2019-04-21T15:13:15.503Z,3.57
2019-04-21T15:15:43.754Z,3.43
2019-04-21T15:18:12.575Z,3.37
2019-04-21T15:20:40.577Z,4.27
2019-04-21T15:23:08.483Z,3.80
2019-04-21T15:25:36.390Z,3.27
2019-04-21T15:28:04.288Z,5.10
2019-04-21T15:30:32.532Z,3.27
2019-04-21T15:33:00.536Z,3.10
2019-04-21T15:35:29.007Z,3.63
2019-04-21T15:37:58.046Z,3.60
2019-04-21T15:40:37.466Z,3.80
2019-04-21T15:42:56.765Z,3.23
2019-04-21T15:45:26.337Z,4.10
2019-04-21T15:47:55.878Z,3.73
2019-04-21T15:50:25.228Z,4.00
2019-04-21T15:52:53.915Z,3.30
2019-04-21T15:55:41.144Z,3.53
2019-04-21T15:58:46.507Z,4.03
2019-04-21T16:01:22.851Z,4.03
2019-04-21T16:03:50.790Z,3.93
2019-04-21T16:06:19.427Z,3.63
2019-04-21T16:08:50.639Z,3.73
2019-04-21T16:11:17.660Z,3.70
2019-04-21T16:13:45.947Z,4.63
2019-04-21T16:16:14.652Z,3.97
2019-04-21T16:18:42.704Z,4.20
2019-04-21T16:21:11.719Z,4.10
2019-04-21T16:23:40.512Z,4.03
2019-04-21T16:26:08.823Z,3.73
2019-04-21T16:28:37.370Z,3.60
2019-04-21T16:31:06.706Z,4.03
2019-04-21T16:33:34.677Z,3.97
2019-04-21T16:36:02.548Z,4.00
2019-04-21T16:38:31.440Z,5.20
2019-04-21T16:41:03.326Z,3.63
2019-04-21T16:43:29.185Z,4.10
2019-04-21T16:45:57.200Z,3.80
2019-04-21T16:48:25.437Z,3.37
2019-04-21T16:50:53.455Z,3.47
2019-04-21T16:53:26.037Z,3.70
2019-04-21T16:56:00.339Z,5.17
2019-04-21T16:58:38.857Z,3.60
2019-04-21T17:01:14.269Z,4.53
2019-04-21T17:03:39.864Z,5.40
2019-04-21T17:06:09.043Z,4.10
2019-04-21T17:08:37.030Z,4.10
2019-04-21T17:11:12.494Z,3.83
2019-04-21T17:13:35.830Z,3.50
2019-04-21T17:16:33.003Z,3.90
2019-04-21T17:18:47.518Z,4.13
2019-04-21T17:21:05.105Z,3.67
2019-04-21T17:23:33.614Z,3.90
2019-04-21T17:26:01.661Z,4.30
2019-04-21T17:28:29.950Z,4.23
2019-04-21T17:30:58.253Z,4.23
2019-04-21T17:33:28.299Z,5.73
2019-04-21T17:35:56.807Z,3.73
2019-04-21T17:38:25.939Z,3.30
2019-04-21T17:40:54.056Z,8.30
2019-04-21T17:43:23.631Z,6.40
2019-04-21T17:45:53.118Z,7.27
2019-04-21T17:48:21.903Z,4.20
2019-04-21T17:51:03.334Z,4.40
2019-04-21T17:53:53.788Z,3.83
2019-04-21T17:56:48.131Z,3.87
2019-04-21T17:59:10.043Z,3.47
2019-04-21T18:01:45.053Z,4.27
2019-04-21T18:04:12.313Z,3.20
2019-04-21T18:06:39.341Z,3.80
2019-04-21T18:09:22.316Z,3.50
2019-04-21T18:11:46.899Z,6.50
2019-04-21T18:13:53.871Z,4.07
2019-04-21T18:16:33.650Z,3.77
2019-04-21T18:18:52.957Z,3.57
2019-04-21T18:21:27.971Z,3.80
2019-04-21T18:24:07.358Z,4.03
2019-04-21T18:26:37.085Z,3.93
2019-04-21T18:28:59.640Z,3.20
2019-04-21T18:31:35.335Z,4.03
2019-04-21T18:34:30.691Z,3.90
2019-04-21T18:37:05.488Z,6.67
2019-04-21T18:39:49.818Z,3.80
2019-04-21T18:42:37.553Z,6.63
2019-04-21T18:45:38.167Z,3.50
2019-04-21T18:48:01.691Z,3.97
2019-04-21T18:50:46.002Z,3.70
2019-04-21T18:53:23.839Z,4.20
2019-04-21T18:55:46.691Z,5.67
2019-04-21T18:58:13.714Z,4.33
2019-04-21T19:00:44.153Z,9.30
2019-04-21T19:03:12.297Z,3.57
2019-04-21T19:05:49.067Z,3.70
2019-04-21T19:08:25.933Z,3.93
2019-04-21T19:11:05.444Z,5.20
2019-04-21T19:13:38.099Z,3.97
2019-04-21T19:16:23.920Z,3.93
2019-04-21T19:20:54.270Z,5.00
2019-04-21T19:23:33.862Z,3.90
2019-04-21T19:25:55.626Z,4.47
2019-04-21T19:28:24.788Z,3.67
2019-04-21T19:30:57.617Z,4.77
2019-04-21T19:33:21.628Z,4.33
2019-04-21T19:35:37.250Z,4.77
2019-04-21T19:38:10.113Z,4.87
2019-04-21T19:40:50.844Z,4.00
2019-04-21T19:43:17.300Z,4.33
2019-04-21T19:45:49.774Z,3.47
2019-04-21T19:48:20.212Z,4.90
2019-04-21T19:50:50.311Z,4.40
2019-04-21T19:53:20.105Z,4.23
2019-04-21T19:55:33.998Z,4.10
2019-04-21T19:58:03.156Z,4.67
2019-04-21T20:00:32.500Z,4.80
2019-04-21T20:03:00.789Z,4.23
2019-04-21T20:05:38.442Z,5.17
2019-04-21T20:08:17.680Z,4.20
2019-04-21T20:10:48.381Z,5.10
2019-04-21T20:13:25.942Z,4.57
2019-04-21T20:15:44.771Z,4.33
2019-04-21T20:18:07.117Z,3.90
2019-04-21T20:20:26.913Z,3.90
2019-04-21T20:22:56.053Z,4.60
2019-04-21T20:25:25.634Z,4.80
2019-04-21T20:28:01.395Z,4.30
2019-04-21T20:30:42.641Z,4.23
2019-04-21T20:33:36.472Z,4.50
2019-04-21T20:35:51.723Z,5.17
2019-04-21T20:38:09.383Z,4.90
2019-04-21T20:40:35.932Z,5.13
2019-04-21T20:43:13.463Z,5.37
2019-04-21T20:46:00.459Z,5.60
2019-04-21T20:47:54.588Z,4.40
2019-04-21T20:50:33.889Z,3.50
2019-04-21T20:53:11.192Z,3.90
2019-04-21T20:55:36.985Z,3.90
2019-04-21T20:58:04.273Z,5.90
2019-04-21T21:00:46.149Z,4.63
2019-04-21T21:03:16.343Z,3.93
2019-04-21T21:05:30.560Z,5.07
2019-04-21T21:08:15.019Z,4.87
2019-04-21T21:10:36.867Z,4.33
2019-04-21T21:13:14.230Z,5.00
2019-04-21T21:15:35.914Z,4.93
2019-04-21T21:18:15.477Z,4.77
2019-04-21T21:20:35.443Z,5.47
2019-04-21T21:23:05.705Z,3.90
2019-04-21T21:25:40.070Z,4.70
2019-04-21T21:27:59.551Z,6.00
2019-04-21T21:30:32.290Z,5.33
2019-04-21T21:33:11.214Z,7.27
2019-04-21T21:35:31.111Z,5.30
2019-04-21T21:38:09.955Z,5.13
2019-04-21T21:40:30.389Z,7.40
2019-04-21T21:42:48.108Z,4.63
2019-04-21T21:45:19.853Z,5.90
2019-04-21T21:48:00.741Z,4.80
2019-04-21T21:50:23.962Z,6.27
2019-04-21T21:52:56.023Z,5.37
2019-04-21T21:55:15.930Z,4.50
2019-04-21T21:57:48.675Z,4.70
2019-04-21T22:00:15.443Z,4.80
2019-04-21T22:02:50.742Z,4.83
2019-04-21T22:05:18.559Z,5.27
2019-04-21T22:07:42.791Z,4.23
2019-04-21T22:10:10.673Z,4.23
2019-04-21T22:12:48.823Z,4.13
2019-04-21T22:15:14.595Z,4.43
2019-04-21T22:17:54.310Z,5.00
2019-04-21T22:20:27.136Z,4.50
2019-04-21T22:22:51.211Z,4.23
2019-04-21T22:25:15.338Z,5.60
2019-04-21T22:27:37.038Z,4.77
2019-04-21T22:30:08.921Z,4.53
2019-04-21T22:32:36.468Z,4.30
2019-04-21T22:35:09.849Z,4.53
2019-04-21T22:37:47.352Z,4.50
2019-04-21T22:40:19.273Z,4.87
2019-04-21T22:42:45.121Z,5.70
2019-04-21T22:45:05.222Z,4.50
2019-04-21T22:47:36.418Z,4.87
2019-04-21T22:50:04.519Z,4.53
2019-04-21T22:52:33.705Z,5.20
2019-04-21T22:55:08.467Z,5.13
2019-04-21T22:57:37.816Z,5.47
2019-04-21T23:00:05.225Z,4.77
2019-04-21T23:02:33.589Z,4.53
2019-04-21T23:05:02.145Z,4.70
2019-04-21T23:07:32.890Z,4.37
2019-04-21T23:10:01.031Z,5.10
2019-04-21T23:12:34.491Z,4.20
2019-04-21T23:15:06.266Z,5.10
2019-04-21T23:17:50.674Z,4.90
2019-04-21T23:20:17.558Z,4.20
2019-04-21T23:22:51.434Z,6.73
2019-04-21T23:25:15.207Z,4.57
2019-04-21T23:27:46.907Z,4.70
2019-04-21T23:30:26.435Z,7.17
2019-04-21T23:32:40.727Z,4.70
2019-04-21T23:35:09.253Z,4.27
2019-04-21T23:37:34.225Z,5.27
2019-04-21T23:40:06.070Z,4.60
2019-04-21T23:42:33.338Z,5.67
2019-04-21T23:45:01.321Z,4.53
2019-04-21T23:47:42.074Z,5.57
2019-04-21T23:50:05.417Z,5.10
2019-04-21T23:52:27.826Z,4.70
2019-04-21T23:54:55.943Z,4.60
2019-04-21T23:57:30.407Z,5.07
2019-04-21T23:59:57.405Z,4.43
